Time;durP1;ratioP1;P1;durP2;ratioP2;P2;SDS_P1;SDS_P2;PMS_P1;PMS_P2;Temp;Humidity;BMP_temperature;BMP_pressure;BME280_temperature;BME280_humidity;BME280_pressure;Samples;Min_cycle;Max_cycle;Signal;HPM_P1;HPM_P2
2020/12/24 00:02:10;;;;;;;0.00;0.00;;;14.20;91.80;;;;;;4228825;28;20075;-40
2020/12/24 00:04:31;;;;;;;0.00;0.00;;;14.20;91.80;;;;;;4228942;28;20068;-41
2020/12/24 00:06:52;;;;;;;0.00;0.00;;;14.20;91.90;;;;;;4228111;28;20055;-41
2020/12/24 00:09:13;;;;;;;0.00;0.00;;;14.20;91.90;;;;;;4228467;28;20070;-41
2020/12/24 00:11:34;;;;;;;0.00;0.00;;;14.20;92.00;;;;;;4228185;28;20044;-40
2020/12/24 00:13:56;;;;;;;0.00;0.00;;;14.10;92.30;;;;;;4229033;28;20344;-41
2020/12/24 00:16:17;;;;;;;0.00;0.00;;;14.10;91.90;;;;;;4229170;28;20633;-41
2020/12/24 00:18:38;;;;;;;0.00;0.00;;;14.10;91.90;;;;;;4231505;28;20052;-40
2020/12/24 00:20:58;;;;;;;0.00;0.00;;;14.10;91.90;;;;;;4231697;28;20077;-46
2020/12/24 00:23:20;;;;;;;0.00;0.00;;;14.10;91.80;;;;;;4231550;28;20048;-40
2020/12/24 00:25:41;;;;;;;0.00;0.00;;;14.10;91.80;;;;;;4231591;28;20054;-41
2020/12/24 00:28:02;;;;;;;0.00;0.00;;;14.00;91.80;;;;;;4231704;28;20523;-40
2020/12/24 00:30:23;;;;;;;0.00;0.00;;;14.00;91.80;;;;;;4231518;28;20489;-41
2020/12/24 00:32:44;;;;;;;0.00;0.00;;;14.00;91.70;;;;;;4231676;27;20124;-40
2020/12/24 00:35:06;;;;;;;0.05;0.05;;;14.00;91.70;;;;;;4231570;27;20096;-41
2020/12/24 00:37:27;;;;;;;0.00;0.00;;;14.00;91.70;;;;;;4231247;28;20051;-41
2020/12/24 00:39:47;;;;;;;0.00;0.00;;;14.00;91.70;;;;;;4231397;28;20051;-41
2020/12/24 00:42:08;;;;;;;0.00;0.00;;;14.00;91.70;;;;;;4231393;28;20134;-41
2020/12/24 00:44:31;;;;;;;0.88;0.88;;;14.00;91.60;;;;;;4231521;27;20312;-41
2020/12/24 00:46:53;;;;;;;0.00;0.00;;;13.90;91.50;;;;;;4231985;28;20048;-40
2020/12/24 00:49:14;;;;;;;0.00;0.00;;;13.90;91.60;;;;;;4230784;28;20557;-41
2020/12/24 00:51:35;;;;;;;;;;;13.90;91.50;;;;;;4231419;28;20074;-40
2020/12/24 00:53:57;;;;;;;0.00;0.00;;;13.90;91.50;;;;;;4231311;28;20335;-41
2020/12/24 00:56:18;;;;;;;0.00;0.00;;;14.00;91.70;;;;;;4229910;28;20058;-40
2020/12/24 00:58:52;;;;;;;0.00;0.00;;;14.20;91.10;;;;;;4230574;28;20101;-40
2020/12/24 01:01:13;;;;;;;0.00;0.00;;;14.50;90.50;;;;;;4231154;28;20055;-41
2020/12/24 01:03:35;;;;;;;;;;;14.70;90.20;;;;;;4231713;27;20135;-41
2020/12/24 01:05:56;;;;;;;0.10;0.10;;;14.80;89.90;;;;;;4213298;28;20417;-41
2020/12/24 01:08:17;;;;;;;0.00;0.00;;;14.80;89.60;;;;;;4214166;28;20406;-41
2020/12/24 01:10:38;;;;;;;0.00;0.00;;;14.80;89.10;;;;;;4228066;28;20086;-40
2020/12/24 01:12:58;;;;;;;0.00;0.00;;;14.80;89.10;;;;;;4231070;28;20055;-42
2020/12/24 01:15:19;;;;;;;0.20;0.20;;;14.70;89.00;;;;;;4215139;28;20742;-42
2020/12/24 01:17:40;;;;;;;0.00;0.00;;;14.70;89.20;;;;;;4230940;28;20150;-40
2020/12/24 01:20:03;;;;;;;0.00;0.00;;;14.70;89.20;;;;;;4230956;28;20125;-40
2020/12/24 01:22:24;;;;;;;0.00;0.00;;;14.70;89.20;;;;;;4231035;28;20124;-40
2020/12/24 01:24:45;;;;;;;0.00;0.00;;;14.60;89.60;;;;;;4231244;28;20528;-40
2020/12/24 01:27:06;;;;;;;0.00;0.00;;;14.50;89.80;;;;;;4231186;28;20509;-40
2020/12/24 01:29:26;;;;;;;0.00;0.00;;;14.50;89.80;;;;;;4230632;28;20405;-41
2020/12/24 01:31:49;;;;;;;0.00;0.00;;;14.50;89.90;;;;;;4231353;28;20421;-41
2020/12/24 01:34:10;;;;;;;0.00;0.00;;;14.40;90.00;;;;;;4231034;28;20059;-40
2020/12/24 01:36:32;;;;;;;0.00;0.00;;;14.30;90.30;;;;;;4231026;28;20105;-41
2020/12/24 01:38:53;;;;;;;0.00;0.00;;;14.30;90.40;;;;;;4231131;27;20505;-41
2020/12/24 01:41:13;;;;;;;0.00;0.00;;;14.40;90.20;;;;;;4231031;28;20062;-41
2020/12/24 01:43:34;;;;;;;0.00;0.00;;;14.70;89.50;;;;;;4230626;27;20055;-41
2020/12/24 01:45:56;;;;;;;0.00;0.00;;;14.90;88.50;;;;;;4230538;28;20607;-40
2020/12/24 01:48:17;;;;;;;0.00;0.00;;;14.90;87.90;;;;;;4230402;28;20421;-40
2020/12/24 01:50:37;;;;;;;0.00;0.00;;;14.90;87.70;;;;;;4229791;28;20425;-40
2020/12/24 01:53:23;;;;;;;0.00;0.00;;;14.90;87.30;;;;;;4230245;27;20086;-41
2020/12/24 01:55:43;;;;;;;0.30;0.30;;;14.90;87.40;;;;;;4229960;28;20054;-41
2020/12/24 01:58:04;;;;;;;0.10;0.10;;;14.90;87.30;;;;;;4230641;28;20052;-41
2020/12/24 02:00:25;;;;;;;0.00;0.00;;;14.80;87.60;;;;;;4230472;28;20058;-41
2020/12/24 02:02:46;;;;;;;0.00;0.00;;;14.80;87.90;;;;;;4230809;28;20055;-40
2020/12/24 02:05:07;;;;;;;0.00;0.00;;;14.70;87.80;;;;;;4230430;28;20119;-41
2020/12/24 02:07:28;;;;;;;0.45;0.45;;;14.80;87.80;;;;;;4230676;28;20047;-41
2020/12/24 02:09:50;;;;;;;0.00;0.00;;;14.90;87.50;;;;;;4230515;28;20104;-41
2020/12/24 02:12:12;;;;;;;0.00;0.00;;;15.00;86.60;;;;;;4229912;28;20055;-40
2020/12/24 02:14:33;;;;;;;0.52;0.52;;;15.00;86.30;;;;;;4229967;28;20051;-40
2020/12/24 02:16:53;;;;;;;0.00;0.00;;;15.00;86.00;;;;;;4229679;28;20078;-40
2020/12/24 02:19:27;;;;;;;0.00;0.00;;;15.00;87.00;;;;;;4213127;28;20048;-41
2020/12/24 02:21:48;;;;;;;0.00;0.00;;;15.00;86.30;;;;;;4212989;28;20063;-40
2020/12/24 02:24:09;;;;;;;0.00;0.00;;;15.00;86.30;;;;;;4214398;28;20052;-41
2020/12/24 02:26:31;;;;;;;0.00;0.00;;;15.10;86.10;;;;;;4230118;28;20081;-41
2020/12/24 02:28:52;;;;;;;0.10;0.10;;;15.20;85.40;;;;;;4229882;28;20673;-41
2020/12/24 02:31:13;;;;;;;0.00;0.00;;;15.30;85.00;;;;;;4229434;28;20075;-40
2020/12/24 02:33:34;;;;;;;0.00;0.00;;;15.30;84.60;;;;;;4229498;28;20051;-40
2020/12/24 02:35:55;;;;;;;0.00;0.00;;;15.30;84.50;;;;;;4229669;28;20051;-41
2020/12/24 02:38:21;;;;;;;0.00;0.00;;;15.20;84.40;;;;;;4229384;28;20044;-41
2020/12/24 02:40:42;;;;;;;0.15;0.15;;;15.20;84.40;;;;;;4229305;28;20062;-40
2020/12/24 02:43:03;;;;;;;0.00;0.00;;;15.10;84.60;;;;;;4229813;28;20056;-41
2020/12/24 02:45:24;;;;;;;0.00;0.00;;;15.10;84.60;;;;;;4230007;28;20403;-41
2020/12/24 02:47:45;;;;;;;0.00;0.00;;;15.20;84.50;;;;;;4229547;28;20048;-40
2020/12/24 02:50:08;;;;;;;0.00;0.00;;;15.20;84.10;;;;;;4228918;27;20100;-41
2020/12/24 02:52:29;;;;;;;0.00;0.00;;;15.20;84.20;;;;;;4229426;28;20646;-41
2020/12/24 02:54:54;;;;;;;0.00;0.00;;;15.20;84.30;;;;;;4229276;28;20056;-41
2020/12/24 02:57:16;;;;;;;0.00;0.00;;;15.40;83.70;;;;;;4229350;28;20051;-41
2020/12/24 02:59:53;;;;;;;0.00;0.00;;;15.50;82.50;;;;;;4228174;28;20052;-41
2020/12/24 03:02:14;;;;;;;0.00;0.00;;;15.60;82.00;;;;;;4229281;28;20603;-41
2020/12/24 03:04:35;;;;;;;0.00;0.00;;;15.60;81.90;;;;;;4228933;28;20105;-41
2020/12/24 03:06:56;;;;;;;0.00;0.00;;;15.50;81.90;;;;;;4229325;28;20486;-40
2020/12/24 03:09:17;;;;;;;0.00;0.00;;;15.60;82.10;;;;;;4229200;28;20061;-41
2020/12/24 03:11:48;;;;;;;0.00;0.00;;;15.80;81.20;;;;;;4213019;28;20066;-41
2020/12/24 03:14:08;;;;;;;0.03;0.03;;;16.00;80.40;;;;;;4212582;28;20060;-41
2020/12/24 03:16:33;;;;;;;0.00;0.00;;;16.10;79.90;;;;;;4212345;28;20052;-40
2020/12/24 03:18:54;;;;;;;0.00;0.00;;;16.10;79.80;;;;;;4212257;28;20056;-41
2020/12/24 03:21:15;;;;;;;0.00;0.00;;;16.10;80.00;;;;;;4212177;28;20517;-40
2020/12/24 03:23:35;;;;;;;0.00;0.00;;;16.10;80.00;;;;;;4212274;28;20056;-41
2020/12/24 03:25:56;;;;;;;0.00;0.00;;;16.00;80.30;;;;;;4224284;28;20057;-41
2020/12/24 03:28:21;;;;;;;0.15;0.15;;;15.90;80.70;;;;;;4228767;28;20063;-41
2020/12/24 03:30:42;;;;;;;0.00;0.00;;;15.70;81.10;;;;;;4228533;28;20413;-40
2020/12/24 03:33:03;;;;;;;0.00;0.00;;;15.70;81.70;;;;;;4229482;28;20055;-40
2020/12/24 03:35:24;;;;;;;0.00;0.00;;;15.80;81.70;;;;;;4229596;28;20051;-41
2020/12/24 03:37:45;;;;;;;0.00;0.00;;;15.80;81.70;;;;;;4229101;28;20047;-41
2020/12/24 03:40:05;;;;;;;0.00;0.00;;;15.80;81.90;;;;;;4228718;28;20040;-40
2020/12/24 03:42:26;;;;;;;0.03;0.03;;;15.80;82.10;;;;;;4228976;28;20048;-40
2020/12/24 03:44:48;;;;;;;0.00;0.00;;;15.80;81.90;;;;;;4228837;28;20047;-40
2020/12/24 03:47:09;;;;;;;0.00;0.00;;;15.90;81.50;;;;;;4228711;28;20047;-40
2020/12/24 03:49:30;;;;;;;0.00;0.00;;;15.90;81.30;;;;;;4228721;28;20071;-40
2020/12/24 03:51:51;;;;;;;0.00;0.00;;;15.90;81.20;;;;;;4227997;28;20055;-41
2020/12/24 03:54:12;;;;;;;0.00;0.00;;;16.00;81.50;;;;;;4232591;27;20048;-41
2020/12/24 03:56:33;;;;;;;0.00;0.00;;;15.90;81.80;;;;;;4232832;28;20126;-41
2020/12/24 03:58:54;;;;;;;0.00;0.00;;;15.90;82.10;;;;;;4232183;28;20048;-41
2020/12/24 04:01:16;;;;;;;0.08;0.08;;;15.80;82.30;;;;;;4232189;28;20447;-41
2020/12/24 04:03:37;;;;;;;0.00;0.00;;;15.90;82.10;;;;;;4231880;28;20056;-41
2020/12/24 04:05:58;;;;;;;0.00;0.00;;;16.20;81.10;;;;;;4232018;28;20057;-41
2020/12/24 04:08:18;;;;;;;0.00;0.00;;;16.40;80.20;;;;;;4231581;28;20482;-41
2020/12/24 04:10:39;;;;;;;0.00;0.00;;;16.40;79.90;;;;;;4231759;28;20384;-40
2020/12/24 04:13:00;;;;;;;0.00;0.00;;;16.40;79.80;;;;;;4231998;28;20101;-41
2020/12/24 04:15:21;;;;;;;0.00;0.00;;;16.40;79.90;;;;;;4231879;28;20055;-41
2020/12/24 04:17:43;;;;;;;0.00;0.00;;;16.30;80.20;;;;;;4232316;28;20056;-41
2020/12/24 04:20:06;;;;;;;0.10;0.10;;;16.30;80.60;;;;;;4231640;28;20549;-41
2020/12/24 04:22:28;;;;;;;0.00;0.00;;;16.20;80.90;;;;;;4231785;28;20574;-41
2020/12/24 04:24:50;;;;;;;0.00;0.00;;;16.10;81.40;;;;;;4231881;28;20130;-42
2020/12/24 04:27:11;;;;;;;0.00;0.00;;;16.00;81.90;;;;;;4231479;28;20504;-41
2020/12/24 04:29:32;;;;;;;0.00;0.00;;;15.90;82.40;;;;;;4231659;28;20059;-41
2020/12/24 04:31:56;;;;;;;0.00;0.00;;;15.90;82.70;;;;;;4231507;28;20113;-42
2020/12/24 04:34:18;;;;;;;0.00;0.00;;;16.00;82.10;;;;;;4232235;28;20058;-41
2020/12/24 04:36:39;;;;;;;0.00;0.00;;;16.20;81.40;;;;;;4231900;27;20047;-41
2020/12/24 04:39:00;;;;;;;0.05;0.05;;;16.20;81.00;;;;;;4231701;28;20081;-41
2020/12/24 04:41:21;;;;;;;0.00;0.00;;;16.20;81.10;;;;;;4213728;28;20442;-41
2020/12/24 04:43:43;;;;;;;0.00;0.00;;;16.20;80.90;;;;;;4215025;28;20055;-41
2020/12/24 04:46:06;;;;;;;0.00;0.00;;;16.20;81.10;;;;;;4227829;28;20051;-41
2020/12/24 04:48:26;;;;;;;0.00;0.00;;;16.20;81.30;;;;;;4231936;27;20142;-41
2020/12/24 04:50:53;;;;;;;0.00;0.00;;;16.20;81.30;;;;;;4231960;28;20177;-41
2020/12/24 04:53:14;;;;;;;0.00;0.00;;;16.40;80.80;;;;;;4231605;28;20055;-41
2020/12/24 04:55:38;;;;;;;0.00;0.00;;;16.50;79.90;;;;;;4230013;28;20090;-41
2020/12/24 04:57:59;;;;;;;0.00;0.00;;;16.60;79.60;;;;;;4230778;28;20482;-41
2020/12/24 05:00:21;;;;;;;0.00;0.00;;;16.60;79.30;;;;;;4230769;28;20047;-41
2020/12/24 05:02:42;;;;;;;0.00;0.00;;;16.60;79.40;;;;;;4231068;28;20188;-41
2020/12/24 05:05:06;;;;;;;0.00;0.00;;;16.60;79.50;;;;;;4230329;28;20070;-41
2020/12/24 05:07:28;;;;;;;0.00;0.00;;;16.60;79.30;;;;;;4231150;28;20056;-41
2020/12/24 05:09:52;;;;;;;0.00;0.00;;;16.70;79.10;;;;;;4230638;28;20047;-41
2020/12/24 05:12:27;;;;;;;0.00;0.00;;;16.60;79.20;;;;;;4231568;28;20051;-41
2020/12/24 05:14:48;;;;;;;0.00;0.00;;;16.60;79.50;;;;;;4231623;28;20044;-40
2020/12/24 05:17:11;;;;;;;0.00;0.00;;;16.50;79.70;;;;;;4231389;27;20056;-41
2020/12/24 05:19:33;;;;;;;0.00;0.00;;;16.40;80.10;;;;;;4231178;28;20648;-41
2020/12/24 05:21:54;;;;;;;0.00;0.00;;;16.40;80.60;;;;;;4231164;28;20079;-41
2020/12/24 05:24:24;;;;;;;;;;;16.30;81.00;;;;;;4230889;28;20077;-41
2020/12/24 05:26:44;;;;;;;0.00;0.00;;;16.20;81.40;;;;;;4230825;28;19920;-41
2020/12/24 05:29:12;;;;;;;0.20;0.20;;;16.10;81.90;;;;;;4230983;28;20494;-41
2020/12/24 05:31:34;;;;;;;0.00;0.00;;;16.20;81.80;;;;;;4230752;28;20409;-41
2020/12/24 05:33:55;;;;;;;0.00;0.00;;;16.30;81.30;;;;;;4231097;28;20529;-41
2020/12/24 05:36:17;;;;;;;0.00;0.00;;;16.40;80.90;;;;;;4230978;28;20160;-41
2020/12/24 05:38:42;;;;;;;0.00;0.00;;;16.40;80.40;;;;;;4230269;28;20543;-42
2020/12/24 05:41:21;;;;;;;0.00;0.00;;;16.50;80.10;;;;;;4230129;28;20066;-41
2020/12/24 05:43:54;;;;;;;0.00;0.00;;;16.50;80.00;;;;;;4230532;28;20418;-41
2020/12/24 05:46:18;;;;;;;0.00;0.00;;;16.50;80.00;;;;;;4230423;28;20059;-42
2020/12/24 05:48:39;;;;;;;0.00;0.00;;;16.50;80.10;;;;;;4230426;28;20056;-41
2020/12/24 05:50:59;;;;;;;0.00;0.00;;;16.50;80.20;;;;;;4230369;28;20062;-41
2020/12/24 05:53:21;;;;;;;0.00;0.00;;;16.60;79.60;;;;;;4230225;28;20073;-41
2020/12/24 05:55:43;;;;;;;0.00;0.00;;;16.70;79.00;;;;;;4230549;28;20051;-41
2020/12/24 05:58:07;;;;;;;0.00;0.00;;;16.70;78.60;;;;;;4230565;28;20063;-41
2020/12/24 06:00:32;;;;;;;0.00;0.00;;;16.80;78.40;;;;;;4230341;28;20051;-41
2020/12/24 06:03:10;;;;;;;0.00;0.00;;;16.80;78.70;;;;;;4230525;28;20854;-41
2020/12/24 06:05:51;;;;;;;0.00;0.00;;;16.80;78.60;;;;;;4230023;28;20713;-41
2020/12/24 06:08:17;;;;;;;0.00;0.00;;;16.80;78.50;;;;;;4230146;28;20135;-42
2020/12/24 06:10:46;;;;;;;0.00;0.00;;;16.70;78.60;;;;;;4230331;28;20407;-42
2020/12/24 06:13:12;;;;;;;0.00;0.00;;;16.70;79.00;;;;;;4230149;28;20505;-41
2020/12/24 06:15:37;;;;;;;0.00;0.00;;;16.60;79.30;;;;;;4229813;27;20081;-43
2020/12/24 06:18:02;;;;;;;0.25;0.25;;;16.50;79.90;;;;;;4230424;28;20058;-43
2020/12/24 06:20:29;;;;;;;0.00;0.00;;;16.40;80.40;;;;;;4229708;28;20051;-42
2020/12/24 06:22:53;;;;;;;0.00;0.00;;;16.30;80.90;;;;;;4229948;28;20048;-41
2020/12/24 06:25:14;;;;;;;0.08;0.08;;;16.20;81.40;;;;;;4229950;28;20051;-41
2020/12/24 06:27:38;;;;;;;0.00;0.00;;;16.20;81.80;;;;;;4229610;28;20501;-41
2020/12/24 06:30:04;;;;;;;0.00;0.00;;;16.40;81.10;;;;;;4229986;28;20623;-41
2020/12/24 06:32:26;;;;;;;0.00;0.00;;;16.50;80.70;;;;;;4230330;28;20051;-41
2020/12/24 06:34:47;;;;;;;0.00;0.00;;;16.60;80.00;;;;;;4229785;28;20539;-41
2020/12/24 06:37:16;;;;;;;0.00;0.00;;;16.60;79.70;;;;;;4229508;28;20490;-41
2020/12/24 06:39:41;;;;;;;0.00;0.00;;;16.60;79.80;;;;;;4229542;28;20059;-41
2020/12/24 06:42:02;;;;;;;0.13;0.13;;;16.50;79.90;;;;;;4229484;28;20051;-41
2020/12/24 06:44:46;;;;;;;0.00;0.00;;;16.60;80.00;;;;;;4229672;28;20413;-43
2020/12/24 06:47:15;;;;;;;0.00;0.00;;;16.60;79.80;;;;;;4229612;28;20463;-42
2020/12/24 06:49:36;;;;;;;0.00;0.00;;;16.50;79.90;;;;;;4229875;28;20048;-42
2020/12/24 06:51:57;;;;;;;0.13;0.13;;;16.50;80.30;;;;;;4229224;28;20493;-41
2020/12/24 06:54:23;;;;;;;0.00;0.00;;;16.40;80.70;;;;;;4229108;28;20595;-41
2020/12/24 06:56:43;;;;;;;0.08;0.08;;;16.30;81.20;;;;;;4229282;28;20051;-41
2020/12/24 06:59:05;;;;;;;0.00;0.00;;;16.20;81.80;;;;;;4228131;28;20139;-41
2020/12/24 07:01:28;;;;;;;0.68;0.15;;;16.30;82.00;;;;;;4229265;28;20056;-41
2020/12/24 07:03:51;;;;;;;2.55;1.20;;;16.30;82.10;;;;;;4229023;28;20058;-42
2020/12/24 07:06:12;;;;;;;0.00;0.00;;;16.30;82.80;;;;;;4229371;28;20146;-42
2020/12/24 07:08:45;;;;;;;0.00;0.00;;;16.30;83.10;;;;;;4229021;28;20816;-43
2020/12/24 07:11:08;;;;;;;0.00;0.00;;;16.20;83.20;;;;;;4228997;28;20154;-41
2020/12/24 07:13:36;;;;;;;17.83;1.38;;;16.20;83.40;;;;;;4229529;28;20085;-41
2020/12/24 07:15:58;;;;;;;0.00;0.00;;;16.30;82.80;;;;;;4228855;28;20050;-42
2020/12/24 07:18:21;;;;;;;0.00;0.00;;;16.50;81.70;;;;;;4225395;28;20048;-42
2020/12/24 07:20:43;;;;;;;0.00;0.00;;;16.60;80.70;;;;;;4221685;28;20047;-42
2020/12/24 07:23:05;;;;;;;0.00;0.00;;;16.70;80.10;;;;;;4229294;28;20071;-41
2020/12/24 07:25:34;;;;;;;0.00;0.00;;;16.80;79.50;;;;;;4227575;28;20039;-42
2020/12/24 07:27:55;;;;;;;0.00;0.00;;;17.10;78.40;;;;;;4228790;28;20611;-42
2020/12/24 07:30:21;;;;;;;0.00;0.00;;;17.20;77.50;;;;;;4218809;28;20116;-42
2020/12/24 07:32:42;;;;;;;0.00;0.00;;;17.20;77.20;;;;;;4229216;28;20740;-41
2020/12/24 07:35:03;;;;;;;0.10;0.10;;;17.20;78.20;;;;;;4229195;28;20051;-42
2020/12/24 07:37:26;;;;;;;1.35;0.98;;;17.20;77.30;;;;;;4229055;28;20566;-41
2020/12/24 07:39:52;;;;;;;1.05;1.05;;;17.10;77.10;;;;;;4228832;28;20117;-41
2020/12/24 07:42:21;;;;;;;0.00;0.00;;;17.10;77.20;;;;;;4228859;28;20058;-42
2020/12/24 07:44:47;;;;;;;0.57;0.57;;;17.00;77.50;;;;;;4228456;28;20056;-41
2020/12/24 07:47:14;;;;;;;0.35;0.35;;;16.90;78.10;;;;;;4216625;28;20124;-41
2020/12/24 07:49:35;;;;;;;0.00;0.00;;;16.70;78.60;;;;;;4229326;28;20459;-41
2020/12/24 07:51:58;;;;;;;0.00;0.00;;;16.60;79.20;;;;;;4215205;28;20798;-45
2020/12/24 07:54:24;;;;;;;0.00;0.00;;;16.60;79.70;;;;;;4228579;28;20051;-42
2020/12/24 07:56:45;;;;;;;0.00;0.00;;;16.60;79.40;;;;;;4211022;28;20087;-42
2020/12/24 07:59:10;;;;;;;0.00;0.00;;;16.70;78.90;;;;;;4212344;28;20093;-41
2020/12/24 08:01:31;;;;;;;;;;;16.70;78.60;;;;;;4218431;28;20075;-41
2020/12/24 08:03:57;;;;;;;2.03;1.88;;;16.70;78.80;;;;;;4228939;28;19953;-41
2020/12/24 08:06:18;;;;;;;0.00;0.00;;;16.70;78.90;;;;;;4228075;28;20055;-41
2020/12/24 08:08:40;;;;;;;0.00;0.00;;;16.60;79.30;;;;;;4226976;28;20044;-41
2020/12/24 08:11:02;;;;;;;0.00;0.00;;;16.60;79.70;;;;;;4228695;28;20062;-42
2020/12/24 08:13:23;;;;;;;0.22;0.22;;;16.50;80.00;;;;;;4228093;28;20477;-41
2020/12/24 08:15:49;;;;;;;0.00;0.00;;;16.60;79.60;;;;;;4229101;28;20051;-41
2020/12/24 08:18:12;;;;;;;0.00;0.00;;;16.60;79.20;;;;;;4229052;28;20083;-41
2020/12/24 08:20:41;;;;;;;0.00;0.00;;;16.60;79.20;;;;;;4228805;28;20051;-41
2020/12/24 08:23:10;;;;;;;0.38;0.38;;;16.60;79.40;;;;;;4229212;28;20052;-41
2020/12/24 08:25:31;;;;;;;0.47;0.47;;;16.50;79.70;;;;;;4228564;28;20047;-41
2020/12/24 08:27:54;;;;;;;0.00;0.00;;;16.40;80.10;;;;;;4215666;28;20048;-41
2020/12/24 08:30:17;;;;;;;0.00;0.00;;;16.30;80.60;;;;;;4228493;28;20494;-41
2020/12/24 08:32:39;;;;;;;0.00;0.00;;;16.20;81.10;;;;;;4228669;28;20131;-41
2020/12/24 08:35:09;;;;;;;0.00;0.00;;;16.10;81.70;;;;;;4228607;28;20334;-41
2020/12/24 08:37:33;;;;;;;0.10;0.10;;;16.00;82.30;;;;;;4228412;28;20105;-41
2020/12/24 08:39:54;;;;;;;0.00;0.00;;;15.80;82.70;;;;;;4231565;28;20057;-41
2020/12/24 08:42:17;;;;;;;;;;;15.80;83.30;;;;;;4232232;28;20059;-41
2020/12/24 08:44:39;;;;;;;0.10;0.10;;;15.70;83.70;;;;;;4231274;28;19924;-41
2020/12/24 08:47:05;;;;;;;0.00;0.00;;;15.70;83.80;;;;;;4232021;27;20430;-41
2020/12/24 08:49:26;;;;;;;0.00;0.00;;;15.80;83.20;;;;;;4231464;28;20056;-41
2020/12/24 08:51:47;;;;;;;0.10;0.10;;;15.80;83.00;;;;;;4231405;28;20083;-40
2020/12/24 08:54:09;;;;;;;0.00;0.00;;;15.90;82.90;;;;;;4231344;28;20125;-41
2020/12/24 08:56:34;;;;;;;0.00;0.00;;;15.80;82.90;;;;;;4214379;28;20052;-42
2020/12/24 08:58:56;;;;;;;0.00;0.00;;;15.80;83.10;;;;;;4214485;28;20051;-44
2020/12/24 09:01:18;;;;;;;5.53;1.65;;;15.70;83.40;;;;;;4222544;28;20447;-41
2020/12/24 09:03:39;;;;;;;0.05;0.05;;;15.60;83.70;;;;;;4231077;28;20047;-41
2020/12/24 09:06:10;;;;;;;0.00;0.00;;;15.50;84.00;;;;;;4231498;28;20155;-41
2020/12/24 09:08:34;;;;;;;0.00;0.00;;;15.50;84.50;;;;;;4230816;28;20053;-41
2020/12/24 09:10:55;;;;;;;0.00;0.00;;;15.40;84.80;;;;;;4231112;28;20055;-41
2020/12/24 09:13:17;;;;;;;0.00;0.00;;;15.30;85.20;;;;;;4231082;28;20056;-41
2020/12/24 09:15:38;;;;;;;0.00;0.00;;;15.40;85.20;;;;;;4230486;28;20051;-41
2020/12/24 09:18:00;;;;;;;0.00;0.00;;;15.60;84.10;;;;;;4230813;27;20125;-41
2020/12/24 09:20:24;;;;;;;0.00;0.00;;;15.70;83.00;;;;;;4230894;28;20406;-41
2020/12/24 09:22:50;;;;;;;0.00;0.00;;;15.80;82.50;;;;;;4231145;28;20051;-42
2020/12/24 09:25:11;;;;;;;0.00;0.00;;;15.80;82.30;;;;;;4231160;28;20555;-41
2020/12/24 09:27:42;;;;;;;0.00;0.00;;;15.80;82.40;;;;;;4230252;28;20108;-41
2020/12/24 09:30:05;;;;;;;;;;;15.80;82.50;;;;;;4230949;28;20050;-41
2020/12/24 09:32:26;;;;;;;0.00;0.00;;;15.70;82.90;;;;;;4230517;28;19934;-42
2020/12/24 09:34:47;;;;;;;0.10;0.10;;;15.70;83.20;;;;;;4230931;28;20501;-41
2020/12/24 09:37:08;;;;;;;0.00;0.00;;;15.60;83.50;;;;;;4231136;28;20056;-41
2020/12/24 09:39:29;;;;;;;0.00;0.00;;;15.50;84.70;;;;;;4230168;28;20501;-41
2020/12/24 09:41:51;;;;;;;1.65;1.55;;;15.40;84.30;;;;;;4230525;28;20494;-44
2020/12/24 09:44:13;;;;;;;0.00;0.00;;;15.40;84.70;;;;;;4230923;28;20059;-42
2020/12/24 09:46:34;;;;;;;0.55;0.55;;;15.40;84.70;;;;;;4230365;28;20136;-42
2020/12/24 09:48:55;;;;;;;0.00;0.00;;;15.50;85.00;;;;;;4229543;28;20044;-41
2020/12/24 09:51:18;;;;;;;0.40;0.40;;;15.60;83.60;;;;;;4229393;28;20051;-41
2020/12/24 09:53:39;;;;;;;0.00;0.00;;;15.70;83.20;;;;;;4230732;27;20048;-42
2020/12/24 09:56:00;;;;;;;0.10;0.10;;;15.80;83.00;;;;;;4230539;28;20051;-41
2020/12/24 09:58:21;;;;;;;0.00;0.00;;;15.70;82.80;;;;;;4230286;28;20059;-40
2020/12/24 10:00:42;;;;;;;0.10;0.10;;;15.70;82.90;;;;;;4230259;28;20052;-41
2020/12/24 10:03:03;;;;;;;0.00;0.00;;;15.70;83.00;;;;;;4229975;28;20048;-42
2020/12/24 10:05:25;;;;;;;0.00;0.00;;;15.60;83.20;;;;;;4229421;28;20577;-41
2020/12/24 10:07:47;;;;;;;0.00;0.00;;;15.50;83.60;;;;;;4230017;28;20078;-41
2020/12/24 10:10:11;;;;;;;0.20;0.20;;;15.40;83.90;;;;;;4229900;27;20071;-41
2020/12/24 10:12:32;;;;;;;0.00;0.00;;;15.40;84.30;;;;;;4230186;28;20047;-41
2020/12/24 10:14:54;;;;;;;0.00;0.00;;;15.30;84.60;;;;;;4230445;28;20131;-41
2020/12/24 10:17:15;;;;;;;1.55;1.45;;;15.30;85.10;;;;;;4230580;28;20051;-41
2020/12/24 10:19:35;;;;;;;;;;;15.20;85.30;;;;;;4230677;27;20055;-41
2020/12/24 10:21:56;;;;;;;0.00;0.00;;;15.30;85.40;;;;;;4229829;28;19970;-41
2020/12/24 10:24:18;;;;;;;3.65;1.55;;;15.50;84.30;;;;;;4229771;27;20493;-42
2020/12/24 10:26:42;;;;;;;0.00;0.00;;;15.70;83.20;;;;;;4229139;28;20763;-42
2020/12/24 10:29:03;;;;;;;0.00;0.00;;;15.80;82.80;;;;;;4227397;28;20121;-42
2020/12/24 10:31:24;;;;;;;0.00;0.00;;;15.80;82.50;;;;;;4229576;27;21035;-41
2020/12/24 10:33:44;;;;;;;0.00;0.00;;;15.80;82.40;;;;;;4229795;28;20056;-41
2020/12/24 10:36:05;;;;;;;0.10;0.10;;;15.80;82.50;;;;;;4229911;28;20293;-42
2020/12/24 10:38:27;;;;;;;0.00;0.00;;;15.80;82.70;;;;;;4229926;28;20052;-41
2020/12/24 10:40:48;;;;;;;0.00;0.00;;;15.70;83.00;;;;;;4230089;28;20051;-42
2020/12/24 10:43:09;;;;;;;0.32;0.32;;;15.60;83.20;;;;;;4229631;28;20154;-41
2020/12/24 10:45:30;;;;;;;1.40;1.30;;;15.60;83.40;;;;;;4229582;28;20055;-41
2020/12/24 10:47:51;;;;;;;0.00;0.00;;;15.70;82.80;;;;;;4229111;28;20414;-40
2020/12/24 10:50:12;;;;;;;0.00;0.00;;;15.90;81.70;;;;;;4229434;28;20113;-41
2020/12/24 10:52:34;;;;;;;0.10;0.10;;;16.00;80.80;;;;;;4229357;28;20051;-41
2020/12/24 10:55:03;;;;;;;0.10;0.10;;;16.00;80.30;;;;;;4229278;28;20036;-42
2020/12/24 10:57:25;;;;;;;0.00;0.00;;;16.00;80.10;;;;;;4229609;28;20075;-41
2020/12/24 10:59:46;;;;;;;0.00;0.00;;;15.90;80.10;;;;;;4229933;28;20059;-41
2020/12/24 11:02:06;;;;;;;0.00;0.00;;;15.80;80.40;;;;;;4228267;28;20047;-41
2020/12/24 11:04:29;;;;;;;0.00;0.00;;;15.70;80.80;;;;;;4229042;28;20113;-43
2020/12/24 11:06:52;;;;;;;0.00;0.00;;;15.60;80.90;;;;;;4229164;27;20119;-41
2020/12/24 11:09:14;;;;;;;0.00;0.00;;;15.60;81.00;;;;;;4229127;28;20130;-41
2020/12/24 11:11:36;;;;;;;0.00;0.00;;;15.50;81.30;;;;;;4220401;28;20437;-41
2020/12/24 11:13:57;;;;;;;0.00;0.00;;;15.40;81.70;;;;;;4228908;28;20501;-42
2020/12/24 11:16:22;;;;;;;0.00;0.00;;;15.40;82.00;;;;;;4229358;28;20054;-42
2020/12/24 11:18:43;;;;;;;0.00;0.00;;;15.50;81.80;;;;;;4229758;28;20070;-42
2020/12/24 11:21:05;;;;;;;0.00;0.00;;;15.60;81.70;;;;;;4229587;28;20048;-42
2020/12/24 11:23:25;;;;;;;0.00;0.00;;;15.60;81.30;;;;;;4222351;28;20055;-42
2020/12/24 11:25:46;;;;;;;0.00;0.00;;;15.60;81.20;;;;;;4229442;28;20494;-45
2020/12/24 11:28:09;;;;;;;0.00;0.00;;;15.60;81.40;;;;;;4229065;28;20074;-42
2020/12/24 11:30:32;;;;;;;0.00;0.00;;;15.50;81.60;;;;;;4229040;28;20051;-41
2020/12/24 11:32:53;;;;;;;0.00;0.00;;;15.50;81.90;;;;;;4229243;28;20055;-41
2020/12/24 11:35:14;;;;;;;0.00;0.00;;;15.40;82.10;;;;;;4229517;28;20097;-43
2020/12/24 11:37:35;;;;;;;0.00;0.00;;;15.40;82.60;;;;;;4228888;28;20064;-42
2020/12/24 11:39:55;;;;;;;0.00;0.00;;;15.30;82.90;;;;;;4228961;28;20579;-44
2020/12/24 11:42:16;;;;;;;0.00;0.00;;;15.20;83.10;;;;;;4228865;28;20059;-43
2020/12/24 11:44:37;;;;;;;0.05;0.05;;;15.20;83.40;;;;;;4228992;28;20080;-44
2020/12/24 11:46:59;;;;;;;1.20;1.20;;;15.10;83.40;;;;;;4229306;28;20058;-43
2020/12/24 11:49:21;;;;;;;0.00;0.00;;;15.10;83.70;;;;;;4229382;28;20154;-45
2020/12/24 11:51:42;;;;;;;0.00;0.00;;;15.00;83.90;;;;;;4228358;28;20130;-47
2020/12/24 11:54:03;;;;;;;0.00;0.00;;;14.90;84.20;;;;;;4228282;28;20048;-42
2020/12/24 11:56:26;;;;;;;0.00;0.00;;;14.90;84.40;;;;;;4228967;28;20048;-42
2020/12/24 11:58:48;;;;;;;0.10;0.10;;;14.80;84.60;;;;;;4229213;28;20406;-43
2020/12/24 12:01:12;;;;;;;0.00;0.00;;;14.80;85.00;;;;;;4228901;28;20558;-44
2020/12/24 12:03:35;;;;;;;0.00;0.00;;;14.70;85.30;;;;;;4228544;28;20096;-45
2020/12/24 12:05:58;;;;;;;0.00;0.00;;;14.70;85.60;;;;;;4229315;28;20056;-43
2020/12/24 12:08:20;;;;;;;0.00;0.00;;;14.70;85.80;;;;;;4222089;28;20520;-41
2020/12/24 12:10:41;;;;;;;0.10;0.10;;;14.70;85.90;;;;;;4228611;28;20134;-44
2020/12/24 12:13:02;;;;;;;0.00;0.00;;;14.60;85.80;;;;;;4229112;28;20047;-42
2020/12/24 12:15:23;;;;;;;0.10;0.10;;;14.60;85.60;;;;;;4231569;28;20867;-41
2020/12/24 12:17:44;;;;;;;0.00;0.00;;;14.50;85.70;;;;;;4232256;28;20047;-42
2020/12/24 12:20:06;;;;;;;0.00;0.00;;;14.50;85.70;;;;;;4231651;28;20060;-42
2020/12/24 12:22:29;;;;;;;0.03;0.03;;;14.50;85.70;;;;;;4231338;28;20047;-41
2020/12/24 12:24:50;;;;;;;0.00;0.00;;;14.40;85.80;;;;;;4231223;27;20054;-43